Time;durP1;ratioP1;P1;durP2;ratioP2;P2;SDS_P1;SDS_P2;PMS_P1;PMS_P2;Temp;Humidity;BMP_temperature;BMP_pressure;BME280_temperature;BME280_humidity;BME280_pressure;Samples;Min_cycle;Max_cycle;Signal;HPM_P1;HPM_P2
2022/03/19 00:00:42;;;;;;;91.40;31.50;;;;;;;-2.62;68.46;101891.80;103534;1303;24273;-29
2022/03/19 00:03:08;;;;;;;75.30;29.10;;;;;;;-2.60;65.62;101888.58;103613;1301;22680;-28
2022/03/19 00:05:34;;;;;;;98.70;29.70;;;;;;;-2.62;65.52;101884.98;103480;1300;24211;-25
2022/03/19 00:08:01;;;;;;;143.40;39.00;;;;;;;-2.68;66.94;101887.29;103584;1303;24247;-29
2022/03/19 00:10:26;;;;;;;86.70;29.70;;;;;;;-2.78;69.93;101891.65;103557;1303;22503;-29
2022/03/19 00:12:54;;;;;;;54.80;24.40;;;;;;;-2.87;69.00;101893.84;103533;1301;24224;-26
2022/03/19 00:15:19;;;;;;;92.10;30.70;;;;;;;-2.89;69.66;101898.30;103499;1303;24298;-28
2022/03/19 00:17:45;;;;;;;88.90;31.20;;;;;;;-2.92;70.37;101900.15;103574;1300;24253;-29
2022/03/19 00:20:11;;;;;;;75.10;22.30;;;;;;;-2.95;69.56;101899.73;103572;1300;24244;-25
2022/03/19 00:22:38;;;;;;;113.10;33.20;;;;;;;-2.90;71.12;101901.13;103522;1300;24381;-29
2022/03/19 00:25:04;;;;;;;126.90;40.00;;;;;;;-2.92;71.62;101902.61;103606;1302;24253;-25
2022/03/19 00:27:30;;;;;;;95.50;30.20;;;;;;;-2.98;71.57;101901.58;103504;1302;24217;-30
2022/03/19 00:29:56;;;;;;;120.00;34.90;;;;;;;-3.01;71.07;101899.38;103636;1303;24250;-29
2022/03/19 00:32:22;;;;;;;74.50;26.40;;;;;;;-3.10;71.39;101901.75;103522;1300;24195;-25
2022/03/19 00:34:48;;;;;;;81.10;25.70;;;;;;;-3.10;70.90;101903.71;103517;1300;22876;-25
2022/03/19 00:37:13;;;;;;;96.50;31.80;;;;;;;-3.06;71.06;101898.82;103551;1302;24289;-25
2022/03/19 00:39:39;;;;;;;97.00;26.90;;;;;;;-3.04;70.75;101897.38;103573;1303;24249;-25
2022/03/19 00:42:07;;;;;;;114.80;36.30;;;;;;;-3.05;69.54;101896.19;103548;1300;24295;-30
2022/03/19 00:44:33;;;;;;;97.70;31.20;;;;;;;-3.09;70.35;101894.55;103642;1301;24240;-29
2022/03/19 00:46:59;;;;;;;116.40;29.10;;;;;;;-3.10;71.56;101895.27;103520;1302;24218;-28
2022/03/19 00:49:24;;;;;;;137.90;38.00;;;;;;;-3.09;71.06;101895.09;103547;1303;24413;-30
2022/03/19 00:51:51;;;;;;;116.70;32.90;;;;;;;-3.10;69.37;101897.38;103613;1302;24291;-29
2022/03/19 00:54:16;;;;;;;88.50;26.50;;;;;;;-3.11;69.22;101895.13;103540;1303;24266;-29
2022/03/19 00:56:42;;;;;;;79.50;25.70;;;;;;;-3.13;70.21;101888.38;103557;1303;24331;-25
2022/03/19 00:59:08;;;;;;;76.80;26.10;;;;;;;-3.12;71.41;101890.27;103643;1300;24298;-29
2022/03/19 01:01:35;;;;;;;92.70;28.00;;;;;;;-3.15;71.36;101888.42;103535;1300;24645;-25
2022/03/19 01:04:01;;;;;;;76.20;26.90;;;;;;;-3.23;71.46;101889.58;103593;1300;24308;-28
2022/03/19 01:06:27;;;;;;;63.30;23.70;;;;;;;-3.28;70.59;101891.48;103557;1302;24211;-28
2022/03/19 01:08:53;;;;;;;107.90;35.90;;;;;;;-3.35;71.06;101889.04;103591;1301;24249;-27
2022/03/19 01:11:23;;;;;;;98.60;29.10;;;;;;;-3.45;69.77;101887.08;103545;1300;24326;-30
2022/03/19 01:13:50;;;;;;;91.40;24.10;;;;;;;-3.48;73.26;101879.27;103653;1300;24420;-28
2022/03/19 01:16:19;;;;;;;97.00;31.30;;;;;;;-3.49;72.74;101876.87;103565;1300;24354;-26
2022/03/19 01:18:45;;;;;;;65.30;22.70;;;;;;;-3.54;72.22;101878.05;103613;1300;24195;-27
2022/03/19 01:21:11;;;;;;;72.80;23.50;;;;;;;-3.49;73.13;101872.83;103569;1301;24409;-29
2022/03/19 01:23:37;;;;;;;62.90;22.40;;;;;;;-3.43;73.55;101870.03;103535;1300;22816;-29
2022/03/19 01:26:02;;;;;;;66.00;21.60;;;;;;;-3.41;72.94;101871.86;103469;1300;24263;-29
2022/03/19 01:28:29;;;;;;;58.00;20.30;;;;;;;-3.42;72.95;101870.00;103551;1301;24249;-30
2022/03/19 01:30:54;;;;;;;98.60;34.20;;;;;;;-3.41;73.56;101870.86;103586;1300;24252;-30
2022/03/19 01:33:20;;;;;;;101.10;32.90;;;;;;;-3.48;71.40;101868.09;103520;1300;24356;-30
2022/03/19 01:35:46;;;;;;;76.70;25.70;;;;;;;-3.57;72.53;101868.16;103542;1300;24196;-29
2022/03/19 01:38:11;;;;;;;78.30;25.10;;;;;;;-3.63;72.80;101867.46;103578;1301;24441;-25
2022/03/19 01:40:37;;;;;;;83.80;30.20;;;;;;;-3.76;73.41;101863.64;103519;1300;23977;-25
2022/03/19 01:43:03;;;;;;;98.90;30.30;;;;;;;-3.85;74.17;101862.48;103509;1303;24219;-26
2022/03/19 01:45:28;;;;;;;82.20;25.00;;;;;;;-3.87;74.96;101859.23;103623;1300;24444;-28
2022/03/19 01:47:55;;;;;;;66.00;22.10;;;;;;;-3.83;76.64;101862.26;103655;1299;24298;-28
2022/03/19 01:50:21;;;;;;;68.80;24.00;;;;;;;-3.80;76.07;101860.95;103627;1300;22890;-26
2022/03/19 01:52:47;;;;;;;56.50;21.70;;;;;;;-3.77;75.63;101861.21;103712;1300;24525;-27
2022/03/19 01:55:14;;;;;;;74.00;23.30;;;;;;;-3.74;74.71;101857.64;103679;1299;24207;-29
2022/03/19 01:57:42;;;;;;;92.00;32.30;;;;;;;-3.71;73.95;101852.45;103670;1300;24285;-29
2022/03/19 02:00:10;;;;;;;86.50;31.90;;;;;;;-3.64;72.39;101852.79;103537;1302;24217;-30
2022/03/19 02:02:36;;;;;;;91.30;32.70;;;;;;;-3.61;73.43;101852.85;103665;1299;24192;-29
2022/03/19 02:05:03;;;;;;;97.00;30.60;;;;;;;-3.62;75.43;101853.27;103469;1302;24321;-28
2022/03/19 02:07:29;;;;;;;86.00;27.40;;;;;;;-3.64;75.99;101855.95;103718;1300;24353;-26
2022/03/19 02:09:58;;;;;;;79.60;27.50;;;;;;;-3.66;77.59;101860.91;103689;1299;24244;-25
2022/03/19 02:12:24;;;;;;;83.10;30.60;;;;;;;-3.65;77.16;101858.95;103612;1302;24353;-28
2022/03/19 02:14:50;;;;;;;96.20;30.30;;;;;;;-3.69;77.08;101858.20;103547;1300;24405;-30
2022/03/19 02:17:16;;;;;;;60.80;23.90;;;;;;;-3.69;76.59;101854.33;103672;1300;24170;-28
2022/03/19 02:19:48;;;;;;;66.90;26.30;;;;;;;-3.66;76.74;101855.13;103514;1302;24321;-26
2022/03/19 02:22:14;;;;;;;87.00;29.60;;;;;;;-3.62;75.47;101859.58;103589;1303;24294;-30
2022/03/19 02:27:09;;;;;;;67.30;28.10;;;;;;;-3.54;74.56;101856.36;103546;1302;22510;-26
2022/03/19 02:29:36;;;;;;;65.40;23.80;;;;;;;-3.51;74.28;101853.80;103696;1300;24211;-28
2022/03/19 02:32:04;;;;;;;70.70;24.60;;;;;;;-3.47;74.19;101844.06;103548;1301;24251;-29
2022/03/19 02:34:31;;;;;;;84.60;31.10;;;;;;;-3.41;73.48;101841.40;103539;1302;24261;-28
2022/03/19 02:36:57;;;;;;;101.80;35.40;;;;;;;-3.36;73.13;101843.52;103657;1303;25223;-29
2022/03/19 02:39:28;;;;;;;84.30;32.00;;;;;;;-3.32;71.37;101844.42;103527;1302;22494;-26
2022/03/19 02:41:55;;;;;;;95.90;33.80;;;;;;;-3.29;71.40;101846.64;103540;1301;24297;-29
2022/03/19 02:44:21;;;;;;;81.80;31.10;;;;;;;-3.23;70.06;101842.62;103684;1300;24249;-26
2022/03/19 02:46:48;;;;;;;85.60;30.20;;;;;;;-3.20;70.04;101837.95;103528;1302;24370;-26
2022/03/19 02:49:15;;;;;;;70.50;24.20;;;;;;;-3.30;71.40;101841.95;103605;1300;24260;-28
2022/03/19 02:51:42;;;;;;;62.20;25.40;;;;;;;-3.38;73.15;101840.97;103688;1299;24396;-28
2022/03/19 02:54:10;;;;;;;82.70;24.30;;;;;;;-3.40;73.25;101845.58;103556;1300;24349;-30
2022/03/19 02:56:37;;;;;;;81.90;25.40;;;;;;;-3.42;73.08;101850.21;103719;1299;24221;-30
2022/03/19 02:59:08;;;;;;;84.90;22.20;;;;;;;-3.40;73.36;101847.17;103531;1303;24411;-27
2022/03/19 03:01:34;;;;;;;105.80;25.50;;;;;;;-3.37;73.21;101850.91;103529;1300;23932;-27
2022/03/19 03:04:01;;;;;;;82.00;26.40;;;;;;;-3.34;73.27;101848.36;103683;1299;24240;-26
2022/03/19 03:06:28;;;;;;;60.40;21.10;;;;;;;-3.24;74.51;101850.36;103538;1302;24240;-29
2022/03/19 03:08:55;;;;;;;117.80;32.10;;;;;;;-3.30;73.87;101846.66;103616;1300;22888;-29
2022/03/19 03:11:21;;;;;;;75.10;29.00;;;;;;;-3.41;73.63;101848.05;103710;1300;22500;-28
2022/03/19 03:13:46;;;;;;;110.70;33.80;;;;;;;-3.49;73.79;101851.10;103528;1300;25139;-28
2022/03/19 03:16:12;;;;;;;80.60;30.40;;;;;;;-3.55;73.44;101852.70;103647;1300;24277;-30
2022/03/19 03:18:38;;;;;;;102.30;33.60;;;;;;;-3.58;72.67;101853.30;103519;1300;24339;-29
2022/03/19 03:21:04;;;;;;;118.20;33.30;;;;;;;-3.62;73.56;101852.38;103560;1300;24348;-25
2022/03/19 03:23:31;;;;;;;127.30;37.50;;;;;;;-3.64;74.13;101849.27;103605;1303;24256;-27
2022/03/19 03:25:57;;;;;;;162.90;53.90;;;;;;;-3.61;74.71;101848.69;103666;1300;24212;-29
2022/03/19 03:28:23;;;;;;;151.30;40.70;;;;;;;-3.60;74.37;101842.87;103527;1300;24314;-26
2022/03/19 03:30:50;;;;;;;109.00;31.80;;;;;;;-3.61;74.50;101839.73;103702;1300;24994;-26
2022/03/19 03:33:15;;;;;;;73.20;26.30;;;;;;;-3.61;74.26;101838.69;103645;1300;24217;-25
2022/03/19 03:35:41;;;;;;;88.10;32.30;;;;;;;-3.62;73.75;101843.98;103655;1300;24362;-27
2022/03/19 03:38:07;;;;;;;91.60;28.90;;;;;;;-3.65;73.60;101843.19;103557;1303;22506;-27
2022/03/19 03:40:33;;;;;;;90.20;27.20;;;;;;;-3.64;72.99;101845.27;103637;1300;24312;-30
2022/03/19 03:42:59;;;;;;;72.10;25.70;;;;;;;-3.68;73.32;101845.04;103692;1300;24236;-30
2022/03/19 03:45:28;;;;;;;96.90;23.40;;;;;;;-3.68;73.81;101849.42;103611;1299;22652;-25
2022/03/19 03:47:54;;;;;;;83.60;24.60;;;;;;;-3.65;74.09;101843.03;103585;1300;24246;-29
2022/03/19 03:50:20;;;;;;;93.90;28.70;;;;;;;-3.63;74.09;101846.80;103560;1299;24208;-26
2022/03/19 03:52:46;;;;;;;86.30;30.60;;;;;;;-3.59;74.34;101852.64;103661;1300;24365;-29
2022/03/19 03:55:11;;;;;;;79.30;27.60;;;;;;;-3.58;74.03;101853.30;103592;1302;22590;-28
2022/03/19 03:57:37;;;;;;;78.10;28.30;;;;;;;-3.55;74.47;101851.81;103693;1300;24242;-29
2022/03/19 04:00:04;;;;;;;80.10;28.20;;;;;;;-3.53;72.96;101852.11;103560;1302;22763;-26
2022/03/19 04:02:29;;;;;;;92.70;30.10;;;;;;;-3.57;70.77;101850.65;103532;1303;24264;-26
2022/03/19 04:04:55;;;;;;;70.10;24.10;;;;;;;-3.66;71.74;101853.36;103653;1299;24241;-26
2022/03/19 04:07:21;;;;;;;76.40;26.80;;;;;;;-3.77;73.60;101854.57;103525;1303;24214;-29
2022/03/19 04:09:47;;;;;;;79.60;30.50;;;;;;;-3.84;73.64;101853.89;103635;1298;24378;-26
2022/03/19 04:12:14;;;;;;;105.10;30.60;;;;;;;-3.86;73.33;101858.32;103377;1300;406270;-28
2022/03/19 04:14:40;;;;;;;62.10;21.70;;;;;;;-3.92;74.80;101857.27;103667;1300;24295;-25
2022/03/19 04:17:07;;;;;;;75.10;25.90;;;;;;;-3.93;75.48;101854.86;103522;1302;24320;-28
2022/03/19 04:19:32;;;;;;;80.90;27.40;;;;;;;-3.93;75.31;101855.92;103583;1302;24254;-25
2022/03/19 04:21:58;;;;;;;75.40;25.40;;;;;;;-3.92;74.87;101860.43;103655;1300;24504;-26
2022/03/19 04:24:25;;;;;;;70.20;22.40;;;;;;;-3.92;75.41;101861.31;103567;1300;22785;-29
2022/03/19 04:26:51;;;;;;;57.90;23.70;;;;;;;-3.88;74.69;101857.84;103495;1300;24397;-29
2022/03/19 04:29:17;;;;;;;66.70;21.90;;;;;;;-3.85;74.28;101859.71;103627;1299;24224;-26
2022/03/19 04:31:43;;;;;;;59.90;23.60;;;;;;;-3.83;74.35;101857.02;103509;1303;22517;-29
2022/03/19 04:34:09;;;;;;;60.40;22.40;;;;;;;-3.83;74.25;101853.86;103559;1301;24199;-29
2022/03/19 04:36:36;;;;;;;55.80;22.90;;;;;;;-3.84;74.19;101855.13;103693;1300;24288;-26
2022/03/19 04:39:03;;;;;;;50.00;19.70;;;;;;;-3.85;74.47;101856.88;103599;1300;22519;-29
2022/03/19 04:41:29;;;;;;;55.60;21.60;;;;;;;-3.84;74.69;101856.86;103568;1301;24296;-29
2022/03/19 04:43:55;;;;;;;53.70;19.70;;;;;;;-3.86;74.73;101859.73;103632;1299;24208;-25
2022/03/19 04:46:20;;;;;;;51.20;19.90;;;;;;;-3.91;74.95;101860.05;103560;1300;24269;-26
2022/03/19 04:48:46;;;;;;;61.30;19.40;;;;;;;-3.94;75.24;101859.07;103559;1300;24245;-28
2022/03/19 04:51:14;;;;;;;50.50;19.10;;;;;;;-3.96;75.11;101857.58;103529;1300;24250;-28
2022/03/19 04:53:40;;;;;;;64.50;23.30;;;;;;;-3.97;75.84;101856.38;103597;1300;24340;-25
2022/03/19 04:56:06;;;;;;;65.00;24.50;;;;;;;-3.89;72.89;101859.98;103573;1300;22496;-28
2022/03/19 04:58:33;;;;;;;76.80;26.40;;;;;;;-3.80;71.74;101860.09;103568;1300;24272;-26
2022/03/19 05:00:59;;;;;;;75.90;26.90;;;;;;;-3.83;72.11;101862.95;103444;1302;24330;-29
2022/03/19 05:03:25;;;;;;;61.10;25.60;;;;;;;-3.83;72.31;101863.50;103568;1300;24215;-30
2022/03/19 05:05:50;;;;;;;89.80;24.30;;;;;;;-3.86;72.79;101862.19;103573;1300;24485;-29
2022/03/19 05:08:17;;;;;;;53.90;20.90;;;;;;;-3.91;75.73;101862.85;103556;1303;24313;-28
2022/03/19 05:13:13;;;;;;;60.60;22.60;;;;;;;-3.68;73.95;101862.02;103548;1300;24363;-26
2022/03/19 05:15:38;;;;;;;68.90;22.70;;;;;;;-3.61;72.80;101864.95;103553;1302;24305;-29
2022/03/19 05:18:04;;;;;;;72.50;24.00;;;;;;;-3.58;72.35;101866.28;103577;1301;24229;-30
2022/03/19 05:20:31;;;;;;;73.60;30.10;;;;;;;-3.58;72.20;101869.27;103545;1303;24239;-28
2022/03/19 05:22:57;;;;;;;68.80;24.70;;;;;;;-3.52;71.93;101870.65;103590;1300;24259;-27
2022/03/19 05:25:22;;;;;;;63.50;24.60;;;;;;;-3.45;71.62;101867.98;103493;1301;24291;-30
2022/03/19 05:27:48;;;;;;;65.90;23.40;;;;;;;-3.33;70.88;101862.88;103549;1300;24259;-26
2022/03/19 05:30:14;;;;;;;67.10;27.60;;;;;;;-3.21;70.31;101870.94;103522;1300;24253;-26
2022/03/19 05:32:40;;;;;;;61.50;28.50;;;;;;;-3.10;69.82;101869.70;103607;1300;22961;-25
2022/03/19 05:35:06;;;;;;;62.80;23.30;;;;;;;-2.98;69.46;101871.26;103601;1300;24257;-28
2022/03/19 05:37:33;;;;;;;62.40;26.10;;;;;;;-2.88;69.01;101869.50;103541;1300;24244;-30
2022/03/19 05:40:00;;;;;;;66.30;26.00;;;;;;;-2.76;68.71;101873.02;103562;1300;24350;-26
2022/03/19 05:42:27;;;;;;;58.80;24.30;;;;;;;-2.65;68.40;101875.79;103545;1300;24324;-30
2022/03/19 05:44:54;;;;;;;56.00;22.90;;;;;;;-2.55;68.31;101873.86;103606;1300;24238;-30
2022/03/19 05:47:19;;;;;;;58.20;25.40;;;;;;;-2.45;68.11;101872.11;103514;1300;24215;-30
2022/03/19 05:49:45;;;;;;;52.40;21.00;;;;;;;-2.34;67.80;101875.77;103521;1300;24259;-25
2022/03/19 05:52:11;;;;;;;61.10;24.50;;;;;;;-2.18;67.79;101875.73;103629;1300;24305;-27
2022/03/19 05:54:36;;;;;;;67.30;24.60;;;;;;;-2.10;67.57;101874.23;103635;1300;24249;-25
2022/03/19 05:57:03;;;;;;;53.80;21.90;;;;;;;-1.94;67.47;101879.99;103564;1300;24398;-26
2022/03/19 05:59:29;;;;;;;52.10;22.50;;;;;;;-1.84;66.97;101879.42;103598;1300;23956;-29
2022/03/19 06:01:54;;;;;;;62.30;21.80;;;;;;;-1.73;66.71;101883.42;103541;1300;24245;-29
2022/03/19 06:04:20;;;;;;;53.00;23.70;;;;;;;-1.62;66.15;101886.35;103574;1300;24352;-30
2022/03/19 06:06:47;;;;;;;51.60;22.60;;;;;;;-1.49;65.48;101889.73;103550;1300;24220;-25
2022/03/19 06:09:12;;;;;;;52.10;22.90;;;;;;;-1.40;65.49;101884.27;103578;1301;22956;-26
2022/03/19 06:11:39;;;;;;;68.60;24.80;;;;;;;-1.16;64.65;101880.91;103578;1300;24675;-29
2022/03/19 06:14:06;;;;;;;57.90;23.90;;;;;;;-1.00;63.95;101882.02;103516;1300;24269;-26
2022/03/19 06:16:32;;;;;;;52.10;22.20;;;;;;;-0.82;63.66;101885.70;103558;1302;24282;-26
2022/03/19 06:18:58;;;;;;;52.50;21.70;;;;;;;-0.61;63.60;101881.14;103535;1299;24357;-30
2022/03/19 06:21:24;;;;;;;39.90;19.90;;;;;;;-0.40;63.28;101879.00;103532;1300;24223;-28
2022/03/19 06:23:50;;;;;;;61.70;21.40;;;;;;;-0.16;62.51;101880.44;103610;1300;24200;-31
2022/03/19 06:26:16;;;;;;;48.80;21.50;;;;;;;0.08;61.52;101882.23;103617;1300;24330;-25
2022/03/19 06:28:42;;;;;;;38.90;19.10;;;;;;;0.21;60.90;101884.99;103597;1300;24422;-29
2022/03/19 06:31:07;;;;;;;40.20;18.40;;;;;;;0.33;59.94;101885.64;103564;1303;24301;-30
2022/03/19 06:33:33;;;;;;;48.70;20.40;;;;;;;0.44;60.03;101888.54;103532;1302;22765;-25
2022/03/19 06:38:29;;;;;;;44.70;19.60;;;;;;;0.75;59.23;101898.02;103549;1300;24441;-25
2022/03/19 06:40:58;;;;;;;38.00;19.70;;;;;;;0.89;59.23;101896.63;103593;1300;24259;-27
2022/03/19 06:43:24;;;;;;;56.80;19.30;;;;;;;0.97;59.05;101896.98;103619;1300;23874;-29
2022/03/19 06:45:50;;;;;;;45.50;19.50;;;;;;;1.02;58.94;101896.55;103474;1301;24309;-25
2022/03/19 06:48:16;;;;;;;56.90;20.70;;;;;;;1.05;58.10;101895.17;103529;1300;24246;-28
2022/03/19 06:50:42;;;;;;;53.90;20.30;;;;;;;1.01;58.18;101899.93;103614;1300;24221;-26
2022/03/19 06:53:08;;;;;;;52.40;20.50;;;;;;;1.04;57.97;101899.80;103567;1300;24221;-25
2022/03/19 06:55:34;;;;;;;44.40;19.70;;;;;;;1.13;56.48;101901.85;103554;1300;24156;-25
2022/03/19 06:58:00;;;;;;;42.10;19.40;;;;;;;1.15;54.91;101899.80;103571;1300;24249;-29
2022/03/19 07:00:26;;;;;;;54.40;22.60;;;;;;;1.19;53.13;101900.66;103557;1300;22501;-29
2022/03/19 07:02:53;;;;;;;49.70;20.70;;;;;;;1.10;53.76;101904.47;103557;1300;24380;-30
2022/03/19 07:05:19;;;;;;;67.20;24.10;;;;;;;1.18;52.21;101901.23;103566;1300;24320;-28
2022/03/19 07:07:45;;;;;;;58.90;21.70;;;;;;;1.05;52.02;101903.65;103568;1300;24467;-27
2022/03/19 07:10:11;;;;;;;42.10;19.60;;;;;;;0.96;52.49;101904.62;103651;1300;24233;-25
2022/03/19 07:12:42;;;;;;;55.90;21.70;;;;;;;0.98;53.11;101904.34;103550;1300;24211;-25
2022/03/19 07:15:10;;;;;;;58.60;25.00;;;;;;;1.10;53.36;101905.49;103559;1300;24210;-30
2022/03/19 07:17:36;;;;;;;50.10;22.30;;;;;;;1.27;53.79;101906.63;103538;1300;23987;-25
2022/03/19 07:20:02;;;;;;;55.80;22.90;;;;;;;1.54;53.19;101905.63;103538;1300;24237;-27
2022/03/19 07:22:27;;;;;;;65.90;25.40;;;;;;;1.82;53.52;101904.04;103600;1300;24301;-28
2022/03/19 07:24:53;;;;;;;43.40;20.20;;;;;;;2.14;52.96;101907.16;103527;1300;23999;-24
2022/03/19 07:27:19;;;;;;;50.00;20.60;;;;;;;2.29;52.64;101910.25;103588;1300;24305;-27
2022/03/19 07:29:45;;;;;;;43.30;21.50;;;;;;;2.51;52.94;101916.64;103545;1300;24969;-28
2022/03/19 07:32:10;;;;;;;47.10;18.10;;;;;;;2.83;52.68;101916.17;103658;1300;24217;-27
2022/03/19 07:34:39;;;;;;;43.60;20.40;;;;;;;3.15;52.09;101914.20;103603;1300;24363;-24
2022/03/19 07:37:05;;;;;;;60.50;23.20;;;;;;;3.42;51.02;101917.80;103595;1300;24238;-23
2022/03/19 07:39:31;;;;;;;44.90;20.80;;;;;;;3.61;50.48;101913.70;103631;1300;22517;-28
2022/03/19 07:41:57;;;;;;;59.20;22.60;;;;;;;3.81;49.34;101915.70;103643;1300;24245;-31
2022/03/19 07:44:23;;;;;;;58.50;21.30;;;;;;;3.96;48.65;101916.91;103566;1300;24211;-25
2022/03/19 07:46:48;;;;;;;36.80;19.40;;;;;;;4.02;47.25;101917.06;103528;1300;22609;-24
2022/03/19 07:49:14;;;;;;;43.20;19.20;;;;;;;4.06;47.08;101918.65;103545;1300;24240;-28
2022/03/19 07:51:41;;;;;;;44.10;20.30;;;;;;;4.22;47.02;101923.68;103546;1300;24218;-28
2022/03/19 07:54:06;;;;;;;42.50;23.00;;;;;;;4.47;45.96;101926.21;103522;1300;22598;-28
2022/03/19 07:56:33;;;;;;;41.00;20.70;;;;;;;4.74;44.44;101925.44;103580;1300;24317;-28
2022/03/19 07:58:59;;;;;;;37.00;18.70;;;;;;;4.91;43.72;101930.56;103540;1300;24205;-28
2022/03/19 08:01:25;;;;;;;44.00;20.20;;;;;;;5.05;42.89;101927.15;103588;1300;24359;-26
2022/03/19 08:03:51;;;;;;;42.90;16.30;;;;;;;5.02;43.15;101930.90;103540;1300;22500;-28
2022/03/19 08:06:16;;;;;;;34.00;18.50;;;;;;;5.28;42.10;101927.46;103543;1300;24275;-29
2022/03/19 08:08:42;;;;;;;35.20;17.20;;;;;;;5.48;41.13;101927.91;103540;1300;24297;-28
2022/03/19 08:11:08;;;;;;;36.20;16.10;;;;;;;5.56;39.71;101928.65;103581;1300;24195;-29
2022/03/19 08:13:34;;;;;;;35.50;19.10;;;;;;;5.56;39.93;101928.06;103542;1300;24275;-25
2022/03/19 08:15:59;;;;;;;44.70;23.20;;;;;;;5.85;39.98;101931.66;103314;1303;24240;-29
2022/03/19 08:18:25;;;;;;;46.00;21.30;;;;;;;5.92;40.43;101933.01;103591;1300;24237;-31
2022/03/19 08:20:51;;;;;;;28.60;15.50;;;;;;;6.05;40.25;101930.86;103541;1302;22514;-28
2022/03/19 08:23:19;;;;;;;61.80;25.70;;;;;;;6.04;39.98;101936.27;103549;1300;24248;-28
2022/03/19 08:25:45;;;;;;;41.60;18.80;;;;;;;6.02;40.88;101934.77;103534;1300;24214;-28
2022/03/19 08:28:11;;;;;;;54.20;23.40;;;;;;;6.14;41.08;101932.38;103633;1300;24221;-28
2022/03/19 08:30:37;;;;;;;62.50;22.80;;;;;;;6.27;39.87;101931.52;103533;1300;24245;-25
2022/03/19 08:33:03;;;;;;;41.40;20.60;;;;;;;6.47;39.93;101929.71;103541;1300;22512;-28
2022/03/19 08:35:29;;;;;;;44.10;21.80;;;;;;;6.58;39.13;101928.60;103587;1300;24240;-28
2022/03/19 08:40:28;;;;;;;29.40;17.60;;;;;;;6.95;36.70;101929.14;103522;1300;24212;-25
2022/03/19 08:42:55;;;;;;;29.80;16.10;;;;;;;6.84;37.59;101925.64;103598;1300;24321;-29
2022/03/19 08:45:21;;;;;;;33.20;16.60;;;;;;;7.01;36.38;101926.73;103610;1300;24378;-28
2022/03/19 08:47:46;;;;;;;37.90;18.40;;;;;;;6.82;36.62;101929.91;103586;1300;24243;-28
2022/03/19 08:50:12;;;;;;;29.50;16.50;;;;;;;7.21;35.62;101928.65;103586;1300;24215;-25
2022/03/19 08:52:38;;;;;;;33.30;19.00;;;;;;;7.08;35.63;101929.64;103658;1300;24419;-27
2022/03/19 08:55:04;;;;;;;36.50;15.90;;;;;;;6.92;36.51;101933.83;103701;1300;22626;-25
2022/03/19 08:57:31;;;;;;;40.60;18.50;;;;;;;6.88;36.50;101936.73;103693;1300;24255;-25
2022/03/19 08:59:57;;;;;;;29.00;15.90;;;;;;;7.07;36.10;101937.89;103513;1300;24262;-28
2022/03/19 09:02:23;;;;;;;28.90;17.20;;;;;;;7.53;34.58;101934.14;103594;1300;24212;-30
2022/03/19 09:04:48;;;;;;;34.60;16.30;;;;;;;7.26;34.83;101935.95;103579;1300;24246;-28
2022/03/19 09:07:14;;;;;;;29.00;17.10;;;;;;;7.45;35.41;101931.49;103697;1300;24307;-26
2022/03/19 09:09:41;;;;;;;26.90;14.70;;;;;;;7.49;33.92;101930.38;103473;1300;24301;-29
2022/03/19 09:12:08;;;;;;;29.00;16.30;;;;;;;7.57;32.15;101925.61;103709;1300;24250;-25
2022/03/19 09:14:34;;;;;;;24.20;12.60;;;;;;;7.68;31.98;101925.70;103521;1300;23045;-28
2022/03/19 09:17:00;;;;;;;26.80;13.70;;;;;;;7.75;31.18;101918.95;103567;1300;24298;-27
2022/03/19 09:19:27;;;;;;;20.90;12.90;;;;;;;7.78;31.03;101923.36;103626;1300;24342;-25
2022/03/19 09:21:54;;;;;;;31.20;13.10;;;;;;;7.86;30.14;101920.77;103647;1300;24245;-28
2022/03/19 09:24:21;;;;;;;31.50;15.00;;;;;;;7.69;31.00;101925.98;103619;1300;24302;-24
2022/03/19 09:26:46;;;;;;;20.90;12.20;;;;;;;7.98;30.50;101920.95;103538;1300;22724;-28
2022/03/19 09:29:15;;;;;;;22.70;13.80;;;;;;;7.71;31.32;101918.36;103644;1300;24351;-28
2022/03/19 09:31:41;;;;;;;18.20;10.70;;;;;;;7.88;29.91;101915.81;103672;1300;24246;-27
2022/03/19 09:34:07;;;;;;;28.20;13.90;;;;;;;7.67;30.55;101927.23;103528;1300;24395;-31
2022/03/19 09:36:33;;;;;;;29.00;15.00;;;;;;;7.89;31.18;101920.38;103563;1300;24256;-26
2022/03/19 09:38:59;;;;;;;39.60;13.60;;;;;;;7.79;31.53;101916.02;103628;1300;24301;-25
2022/03/19 09:41:24;;;;;;;27.50;13.50;;;;;;;7.91;30.72;101918.45;103627;1299;25022;-25
2022/03/19 09:43:50;;;;;;;22.60;11.40;;;;;;;8.15;30.23;101916.39;103507;1301;24264;-28
2022/03/19 09:46:16;;;;;;;23.30;11.40;;;;;;;7.92;30.54;101916.39;103483;1300;22504;-24
2022/03/19 09:48:42;;;;;;;22.70;11.00;;;;;;;8.26;29.68;101909.70;103544;1302;22614;-27
2022/03/19 09:51:09;;;;;;;23.80;13.00;;;;;;;8.31;29.05;101911.55;103569;1302;24300;-28
2022/03/19 09:53:36;;;;;;;34.60;11.60;;;;;;;8.36;29.73;101906.70;103589;1302;24375;-28
2022/03/19 09:56:03;;;;;;;18.30;10.40;;;;;;;8.49;28.69;101905.59;103535;1302;24279;-25
2022/03/19 09:58:28;;;;;;;26.10;10.10;;;;;;;8.68;28.71;101901.74;103575;1302;22661;-25
2022/03/19 10:00:54;;;;;;;18.60;10.30;;;;;;;8.73;27.59;101902.18;103484;1302;25090;-25
2022/03/19 10:03:22;;;;;;;20.20;9.80;;;;;;;8.45;27.91;101907.13;103537;1302;24302;-26
2022/03/19 10:10:47;;;;;;;24.30;12.30;;;;;;;8.48;28.09;101907.92;103550;1302;23877;-25
2022/03/19 10:13:12;;;;;;;17.60;11.80;;;;;;;8.67;28.37;101906.64;103526;1302;24214;-29
2022/03/19 10:15:40;;;;;;;20.80;11.80;;;;;;;8.80;27.76;101909.17;103480;1302;24200;-25
2022/03/19 10:18:08;;;;;;;17.30;12.30;;;;;;;8.72;28.09;101900.15;103665;1302;24224;-24
2022/03/19 10:20:35;;;;;;;15.40;10.40;;;;;;;8.84;27.73;101896.36;103527;1302;24211;-25
2022/03/19 10:23:00;;;;;;;22.00;11.80;;;;;;;8.75;28.55;101902.08;103512;1300;24334;-29
2022/03/19 10:25:27;;;;;;;29.00;13.20;;;;;;;9.17;27.95;101895.25;103542;1301;24301;-25
2022/03/19 10:27:52;;;;;;;26.90;12.30;;;;;;;9.00;28.33;101893.59;103520;1302;24277;-26
2022/03/19 10:30:20;;;;;;;18.30;9.80;;;;;;;9.23;27.40;101894.75;103520;1302;22724;-25
2022/03/19 10:32:49;;;;;;;14.90;9.70;;;;;;;9.07;27.13;101897.52;103566;1302;24157;-28
2022/03/19 10:35:22;;;;;;;17.20;10.10;;;;;;;8.94;27.47;101898.75;103561;1303;24219;-28
2022/03/19 10:37:48;;;;;;;14.80;10.30;;;;;;;8.96;27.97;101898.37;103589;1302;22591;-25
2022/03/19 10:40:14;;;;;;;16.30;11.00;;;;;;;9.32;27.03;101892.77;103582;1300;24304;-25
2022/03/19 10:42:41;;;;;;;14.70;9.50;;;;;;;9.37;26.87;101895.19;103403;1301;22516;-25
2022/03/19 10:45:08;;;;;;;17.20;10.80;;;;;;;9.13;27.05;101894.81;103545;1300;24257;-25
2022/03/19 10:47:39;;;;;;;20.20;12.50;;;;;;;9.35;26.55;101892.31;103695;1300;24196;-29
2022/03/19 10:50:05;;;;;;;15.50;10.10;;;;;;;9.58;27.43;101890.56;103680;1299;23987;-25
2022/03/19 10:52:31;;;;;;;23.70;11.40;;;;;;;9.79;27.63;101889.84;103544;1302;24249;-28
2022/03/19 10:54:57;;;;;;;15.70;11.20;;;;;;;10.03;27.72;101885.11;103613;1299;22509;-24
2022/03/19 10:57:22;;;;;;;26.00;13.00;;;;;;;10.03;27.39;101882.77;103422;1302;24421;-27
2022/03/19 10:59:48;;;;;;;28.70;14.20;;;;;;;9.96;27.63;101881.09;103531;1302;22594;-24
2022/03/19 11:02:15;;;;;;;22.70;12.80;;;;;;;10.36;26.74;101882.30;103717;1299;24207;-25
2022/03/19 11:04:41;;;;;;;20.50;11.90;;;;;;;10.26;25.52;101880.48;103533;1300;24479;-28
2022/03/19 11:07:06;;;;;;;19.20;10.30;;;;;;;10.16;25.89;101876.30;103655;1300;24258;-27
2022/03/19 11:09:33;;;;;;;21.30;12.10;;;;;;;10.17;26.34;101872.10;103476;1300;24250;-27
2022/03/19 11:12:01;;;;;;;18.50;11.70;;;;;;;10.39;25.71;101870.38;103576;1301;24211;-25
2022/03/19 11:14:27;;;;;;;19.30;12.20;;;;;;;10.08;25.98;101870.70;103640;1300;23822;-29